Hovedside
METAR-TAF:

METAR-TAF

Lufthavner :

Žilina, Slovakia

breddegrad: 49-14N, lengdegrad: 018-36-49E, høyde over havet: 312 m

Gjeldene værobservasjon

Denne rapporten ble laget for 38 minutter siden, klokken 09:00 UTC
Vind 7 kt fra Sørvest, skiftende mellom Sør og Vest-sørvest
Temperatur 28°C
Luftfuktighet 48%
Trykk 1014 hPa
Sikt 10 km eller mer
Få skyer i en høyde av 3800 ft

METAR: LZZI 190900Z 22007KT 170V250 9999 FEW038 28/16 Q1014

Tid: 11:38 (09:38 UTC)

Varsel

Denne rapporten ble laget for 39 minutter siden, klokken 08:59 UTC
Varsel gyldig fra 19. klokken 09 UTC til 19. klokken 18 UTC
Vind 9 kt fra Sørvest
Sikt 10 km eller mer
ingen skyer under 1500 m og ingen bygeskyer

TAF: LZZI 190859Z 1909/1918 23009KT CAVOK

Værobservasjoner og værvarsel for over 4000 flyplasser (METAR- og TAF-rapporter).

Tilgjengelige stasjoner er representert av de røde og gule prikkene på kartet.

Hold musepekeren over prikken for å se navnet på stasjonen.

Klikk så for å se værobservasjoner og -varsler.

For å forandre kartet kan du klikke på den grønne knappen med svart kryss for å zoome inn, på den grønne knappen med strek for å zoome ut, eller på de grønne pilene for å se tilstøtende kart.


METAR-TAF: